Williams, AZ

9:29 AM MST on August 24, 2016 (GMT -0700)
Williams, AZ | | Change Station

Elev 7100 ft 35.23 °N, 112.17 °W | Updated 1 minute ago

Clear
Clear
67.3 °F
Feels Like 67.3 °F
N
1.1
Wind Variable Wind from ESE
Gusts 6.0 mph

Today
High -- | Low -- °F
--% Chance of Precip.
Yesterday
High -- | Low -- °F
Precip. -- in
Pressure 30.11 in
Visibility 10.0 miles
Clouds Clear
Dew Point 50 °F
Humidity 53%
Rainfall 0.00 in
Snow Depth Not available.
5:55 AM 7:05 PM
Waning Gibbous, 55% visible
METAR KFLG 241557Z VRB06KT 10SM CLR 19/07 A3036 RMK AO2 SLP194 T01940067
Pressure 30.11 in
Visibility 10.0 miles
Clouds Clear
Dew Point 50 °F
Humidity 53%
Rainfall 0.00 in
Snow Depth Not available.
5:55 AM 7:05 PM
Waning Gibbous, 55% visible
METAR KFLG 241557Z VRB06KT 10SM CLR 19/07 A3036 RMK AO2 SLP194 T01940067

10-Day Weather Forecast

Almanac

Astronomy

Aug. 24, 2016 Rise Set
Actual Time
Civil Twilight
Nautical Twilight
Astronomical Twilight
Moon
Length of Visible Light
Length of Day
Tomorrow will be .
, % of the Moon is Illuminated

Today's Extremes

State Highs State Lows

Community

WunderPhotos

Upload Photos

1,934,649 photos uploaded!

WunderBlog® & News

Nearby

Air Quality

  Air Quality AQ Index Pollutant
Not available.

Snow Depth

Station Depth Elevation

Earthquake Activity

City Distance Mag. Time & Date
Minimum magnitude displayed is 2.5.

Coastal Water Temperatures

Place Temperature

Stations

Nearby Weather Stations

Station Location Temp. Windchill Dew Point Humidity Wind Precip. Elev Updated Type
                   

Watches & Warnings

There are currently no watches in effect.